Talitha — ZCAN7 — position and weather

sailwx.info

Track history (hours):
 
Tides and Currents Weather Stations Pressure Air Temp Water Temp Dewpoint Dewpoint Depression Visibility Wind Speed Wind Dir Waves Ship Positions

Talitha

Last reported at 2014-Jul-28 01:16 UTC. Time now 2014-Jul-31 09:31 UTC.
Position N 42°57' E 009°31'.

Length 60 m; draft 4.7 m.

Type: Pleasure craft. MMSI: 310051000.

Date/timePositionNaut miles runAvg speedWind from/ knotsBaromVisibWave heightAir tempDewpointWater temp
2014-Jul-28 01:16N 42°57' E 009°31'811.7
2014-Jul-28 00:33N 43°04' E 009°25'1413.3
2014-Jul-27 23:32N 43°10' E 009°08'1313.2
2014-Jul-27 22:33N 43°15' E 008°52'1312.9
2014-Jul-27 21:33N 43°21' E 008°36'1312.9
2014-Jul-27 20:33N 43°27' E 008°20'1312.8
2014-Jul-27 19:33N 43°32' E 008°04'29 3.2
2014-Jul-27 10:28N 43°45' E 007°28'3 0.2
2014-Jul-26 18:32N 43°43' E 007°25'3 2.6
2014-Jul-26 17:33N 43°43' E 007°21'0 0.0
2014-Jul-26 16:33N 43°43' E 007°21'0 0.0
2014-Jul-26 15:34N 43°43' E 007°21'0 0.0
2014-Jul-26 14:31N 43°43' E 007°21'0 0.0
2014-Jul-26 13:32N 43°43' E 007°21'0 0.0
2014-Jul-26 12:31N 43°43' E 007°21'0 0.0
2014-Jul-26 11:34N 43°43' E 007°21'0 0.0
2014-Jul-26 10:33N 43°43' E 007°21'0 0.0
2014-Jul-26 09:32N 43°43' E 007°21'0 0.0
2014-Jul-26 08:33N 43°43' E 007°21'0 0.0
2014-Jul-26 07:32N 43°43' E 007°21'0 0.0
2014-Jul-26 06:33N 43°43' E 007°21'0 0.0
2014-Jul-26 05:32N 43°43' E 007°22'0 0.0
2014-Jul-26 04:34N 43°43' E 007°22'0 0.0
2014-Jul-26 03:33N 43°43' E 007°22'0 0.0
2014-Jul-26 02:32N 43°43' E 007°22'0 0.0
2014-Jul-26 01:33N 43°43' E 007°22'0 0.0
2014-Jul-26 00:34N 43°43' E 007°22'0 0.0
2014-Jul-25 23:34N 43°43' E 007°22'0 0.0
2014-Jul-25 22:33N 43°43' E 007°22'0 0.0
2014-Jul-25 21:33N 43°43' E 007°22'0 0.0
2014-Jul-25 20:34N 43°43' E 007°22'0 0.0
2014-Jul-25 17:06N 43°43' E 007°21'0 0.0
2014-Jul-25 16:33N 43°43' E 007°21'0 0.0
2014-Jul-25 15:33N 43°43' E 007°21'0 0.0
2014-Jul-25 14:33N 43°43' E 007°21'6 6.4
2014-Jul-25 13:34N 43°37' E 007°17'1212.2
2014-Jul-25 12:32N 43°30' E 007°04'1313.2
2014-Jul-25 11:33N 43°23' E 006°49'6 6.5
2014-Jul-25 10:33N 43°17' E 006°44'5 4.9
2014-Jul-25 09:33N 43°13' E 006°40'0 0.0
2014-Jul-25 08:09N 43°13' E 006°40'0 0.0
2014-Jul-25 06:33N 43°13' E 006°40'0 0.0
2014-Jul-25 04:12N 43°13' E 006°40'0 0.0
2014-Jul-25 03:30N 43°13' E 006°40'0 0.0
2014-Jul-25 01:33N 43°13' E 006°40'0 0.0
2014-Jul-25 00:27N 43°13' E 006°40'0 0.0
2014-Jul-24 23:30N 43°13' E 006°40'0 0.0
2014-Jul-24 22:33N 43°13' E 006°40'0 0.0
2014-Jul-24 21:33N 43°13' E 006°40'0 0.0
2014-Jul-24 20:27N 43°13' E 006°40'0 0.0
2014-Jul-24 19:27N 43°13' E 006°40'0 0.0
2014-Jul-24 18:21N 43°13' E 006°40'0 0.0
2014-Jul-24 17:33N 43°13' E 006°40'0 0.0
2014-Jul-24 16:33N 43°13' E 006°40'0 0.0
2014-Jul-24 15:30N 43°13' E 006°40'0 0.0
2014-Jul-24 14:18N 43°13' E 006°40'0 0.0
2014-Jul-24 13:30N 43°13' E 006°40'0 0.0
2014-Jul-24 12:30N 43°13' E 006°40'0 0.0
2014-Jul-24 11:33N 43°13' E 006°40'4 3.5
2014-Jul-24 10:33N 43°16' E 006°44'6 2.7
2014-Jul-24 08:21N 43°16' E 006°36'0 0.0
2014-Jul-24 07:24N 43°16' E 006°36'0 0.0
2014-Jul-24 05:15N 43°16' E 006°36'0 0.0
2014-Jul-24 01:33N 43°16' E 006°36'0 0.0
2014-Jul-24 00:27N 43°16' E 006°36'0 0.0
2014-Jul-23 23:09N 43°16' E 006°36'0 0.0
2014-Jul-23 20:24N 43°16' E 006°36'0 0.0
2014-Jul-23 19:33N 43°16' E 006°36'4 3.2
2014-Jul-23 18:26N 43°18' E 006°40'1213.5
2014-Jul-23 17:33N 43°24' E 006°54'1010.1
2014-Jul-23 16:33N 43°32' E 007°03'0 0.0
2014-Jul-23 14:23N 43°32' E 007°03'0 0.0
2014-Jul-23 13:23N 43°32' E 007°03'6 7.5
2014-Jul-23 12:33N 43°36' E 007°10'3 3.0
2014-Jul-23 11:32N 43°39' E 007°10'0 0.0
2014-Jul-23 10:32N 43°39' E 007°10'0 0.0
2014-Jul-23 09:20N 43°39' E 007°10'0 0.0
2014-Jul-23 08:33N 43°39' E 007°10'0 0.0
2014-Jul-23 07:33N 43°39' E 007°10'2 2.5
2014-Jul-23 06:33N 43°37' E 007°09'1 1.3
2014-Jul-23 05:33N 43°36' E 007°08'0 0.0
2014-Jul-23 04:33N 43°36' E 007°08'0 0.0
2014-Jul-23 03:33N 43°36' E 007°08'0 0.0
2014-Jul-23 02:33N 43°36' E 007°08'0 0.0
2014-Jul-23 01:33N 43°36' E 007°08'0 0.0
2014-Jul-23 00:33N 43°36' E 007°08'0 0.0
2014-Jul-22 23:33N 43°36' E 007°08'0 0.0
2014-Jul-22 22:33N 43°36' E 007°08'0 0.0
2014-Jul-22 21:33N 43°36' E 007°08'0 0.0
2014-Jul-22 20:33N 43°36' E 007°08'0 0.0
2014-Jul-22 19:33N 43°36' E 007°08'0 0.0
2014-Jul-22 18:33N 43°36' E 007°08'0 0.0
2014-Jul-22 17:33N 43°36' E 007°08'0 0.0
2014-Jul-22 16:33N 43°36' E 007°08'0 0.0
2014-Jul-22 15:33N 43°36' E 007°08'0 0.0
2014-Jul-22 14:33N 43°36' E 007°08'0 0.0
2014-Jul-22 13:33N 43°36' E 007°08'0 0.0
2014-Jul-22 12:33N 43°36' E 007°08'0 0.0
2014-Jul-22 11:33N 43°36' E 007°08'7 7.0
2014-Jul-22 10:30N 43°30' E 007°02'3 0.4
2014-Jul-22 02:25N 43°33' E 007°01'0 0.0
2014-Jul-21 07:04N 43°33' E 007°01'0 0.0
2014-Jul-20 21:24N 43°33' E 007°01'0 0.0
2014-Jul-20 18:17N 43°33' E 007°01'0 0.0
2014-Jul-20 17:07N 43°33' E 007°01'0 0.0
2014-Jul-20 16:09N 43°33' E 007°01'0 0.8
2014-Jul-20 15:33N 43°32' E 007°01'0 0.0
2014-Jul-20 14:33N 43°32' E 007°01'0 0.0
2014-Jul-20 13:31N 43°32' E 007°01'0 0.0
2014-Jul-20 12:32N 43°32' E 007°01'6 5.8
2014-Jul-20 11:34N 43°27' E 006°57'1413.4
2014-Jul-20 10:30N 43°18' E 006°42'4 4.0
2014-Jul-20 09:26N 43°16' E 006°37'0 0.0
2014-Jul-20 07:29N 43°16' E 006°37'0 0.0
2014-Jul-20 06:29N 43°16' E 006°37'0 0.0
2014-Jul-20 04:26N 43°16' E 006°37'0 0.1
2014-Jul-20 03:29N 43°16' E 006°37'0 0.0
2014-Jul-20 02:17N 43°16' E 006°37'0 0.0
2014-Jul-20 01:29N 43°16' E 006°37'0 0.0
2014-Jul-19 21:17N 43°16' E 006°37'0 0.0
2014-Jul-19 20:08N 43°16' E 006°37'0 0.0
2014-Jul-19 19:30N 43°16' E 006°37'0 0.0
2014-Jul-19 18:33N 43°16' E 006°37'4 4.0
2014-Jul-19 17:33N 43°17' E 006°42'4 4.0
2014-Jul-19 16:31N 43°14' E 006°40'0 0.0
2014-Jul-19 15:33N 43°14' E 006°40'0 0.0
2014-Jul-19 14:31N 43°14' E 006°40'0 0.0
2014-Jul-19 13:25N 43°14' E 006°40'0 0.0
2014-Jul-19 12:33N 43°14' E 006°40'0 0.0
2014-Jul-19 11:33N 43°14' E 006°40'0 0.0
2014-Jul-19 10:33N 43°14' E 006°40'0 0.0
2014-Jul-19 09:33N 43°14' E 006°40'0 0.0
2014-Jul-19 08:23N 43°14' E 006°40'0 0.0
2014-Jul-19 07:26N 43°14' E 006°40'4 4.3
2014-Jul-19 06:33N 43°11' E 006°44'1313.4
2014-Jul-19 05:33N 43°01' E 006°56'1313.1
2014-Jul-19 04:33N 42°51' E 007°08'1313.1
2014-Jul-19 03:32N 42°41' E 007°20'2912.6
2014-Jul-19 01:11N 42°19' E 007°46'912.8
2014-Jul-19 00:28N 42°12' E 007°54'1212.9
2014-Jul-18 23:33N 42°03' E 008°05'1312.9
2014-Jul-18 22:33N 41°54' E 008°17'  
Track history (hours):
 
Tides and Currents Weather Stations Pressure Air Temp Water Temp Dewpoint Dewpoint Depression Visibility Wind Speed Wind Dir Waves Ship Positions

Talitha

Last reported at 2014-Jul-28 01:16 UTC. Time now 2014-Jul-31 09:31 UTC.
Position N 42°57' E 009°31'.

Length 60 m; draft 4.7 m.

Type: Pleasure craft. MMSI: 310051000.

Date/timePositionNaut miles runAvg speedWind from/ knotsBaromVisibWave heightAir tempDewpointWater temp
2014-Jul-28 01:16N 42°57' E 009°31'811.7
2014-Jul-28 00:33N 43°04' E 009°25'1413.3
2014-Jul-27 23:32N 43°10' E 009°08'1313.2
2014-Jul-27 22:33N 43°15' E 008°52'1312.9
2014-Jul-27 21:33N 43°21' E 008°36'1312.9
2014-Jul-27 20:33N 43°27' E 008°20'1312.8
2014-Jul-27 19:33N 43°32' E 008°04'29 3.2
2014-Jul-27 10:28N 43°45' E 007°28'3 0.2
2014-Jul-26 18:32N 43°43' E 007°25'3 2.6
2014-Jul-26 17:33N 43°43' E 007°21'0 0.0
2014-Jul-26 16:33N 43°43' E 007°21'0 0.0
2014-Jul-26 15:34N 43°43' E 007°21'0 0.0
2014-Jul-26 14:31N 43°43' E 007°21'0 0.0
2014-Jul-26 13:32N 43°43' E 007°21'0 0.0
2014-Jul-26 12:31N 43°43' E 007°21'0 0.0
2014-Jul-26 11:34N 43°43' E 007°21'0 0.0
2014-Jul-26 10:33N 43°43' E 007°21'0 0.0
2014-Jul-26 09:32N 43°43' E 007°21'0 0.0
2014-Jul-26 08:33N 43°43' E 007°21'0 0.0
2014-Jul-26 07:32N 43°43' E 007°21'0 0.0
2014-Jul-26 06:33N 43°43' E 007°21'0 0.0
2014-Jul-26 05:32N 43°43' E 007°22'0 0.0
2014-Jul-26 04:34N 43°43' E 007°22'0 0.0
2014-Jul-26 03:33N 43°43' E 007°22'0 0.0
2014-Jul-26 02:32N 43°43' E 007°22'0 0.0
2014-Jul-26 01:33N 43°43' E 007°22'0 0.0
2014-Jul-26 00:34N 43°43' E 007°22'0 0.0
2014-Jul-25 23:34N 43°43' E 007°22'0 0.0
2014-Jul-25 22:33N 43°43' E 007°22'0 0.0
2014-Jul-25 21:33N 43°43' E 007°22'0 0.0
2014-Jul-25 20:34N 43°43' E 007°22'0 0.0
2014-Jul-25 17:06N 43°43' E 007°21'0 0.0
2014-Jul-25 16:33N 43°43' E 007°21'0 0.0
2014-Jul-25 15:33N 43°43' E 007°21'0 0.0
2014-Jul-25 14:33N 43°43' E 007°21'6 6.4
2014-Jul-25 13:34N 43°37' E 007°17'1212.2
2014-Jul-25 12:32N 43°30' E 007°04'1313.2
2014-Jul-25 11:33N 43°23' E 006°49'6 6.5
2014-Jul-25 10:33N 43°17' E 006°44'5 4.9
2014-Jul-25 09:33N 43°13' E 006°40'0 0.0
2014-Jul-25 08:09N 43°13' E 006°40'0 0.0
2014-Jul-25 06:33N 43°13' E 006°40'0 0.0
2014-Jul-25 04:12N 43°13' E 006°40'0 0.0
2014-Jul-25 03:30N 43°13' E 006°40'0 0.0
2014-Jul-25 01:33N 43°13' E 006°40'0 0.0
2014-Jul-25 00:27N 43°13' E 006°40'0 0.0
2014-Jul-24 23:30N 43°13' E 006°40'0 0.0
2014-Jul-24 22:33N 43°13' E 006°40'0 0.0
2014-Jul-24 21:33N 43°13' E 006°40'0 0.0
2014-Jul-24 20:27N 43°13' E 006°40'0 0.0
2014-Jul-24 19:27N 43°13' E 006°40'0 0.0
2014-Jul-24 18:21N 43°13' E 006°40'0 0.0
2014-Jul-24 17:33N 43°13' E 006°40'0 0.0
2014-Jul-24 16:33N 43°13' E 006°40'0 0.0
2014-Jul-24 15:30N 43°13' E 006°40'0 0.0
2014-Jul-24 14:18N 43°13' E 006°40'0 0.0
2014-Jul-24 13:30N 43°13' E 006°40'0 0.0
2014-Jul-24 12:30N 43°13' E 006°40'0 0.0
2014-Jul-24 11:33N 43°13' E 006°40'4 3.5
2014-Jul-24 10:33N 43°16' E 006°44'6 2.7
2014-Jul-24 08:21N 43°16' E 006°36'0 0.0
2014-Jul-24 07:24N 43°16' E 006°36'0 0.0
2014-Jul-24 05:15N 43°16' E 006°36'0 0.0
2014-Jul-24 01:33N 43°16' E 006°36'0 0.0
2014-Jul-24 00:27N 43°16' E 006°36'0 0.0
2014-Jul-23 23:09N 43°16' E 006°36'0 0.0
2014-Jul-23 20:24N 43°16' E 006°36'0 0.0
2014-Jul-23 19:33N 43°16' E 006°36'4 3.2
2014-Jul-23 18:26N 43°18' E 006°40'1213.5
2014-Jul-23 17:33N 43°24' E 006°54'1010.1
2014-Jul-23 16:33N 43°32' E 007°03'0 0.0
2014-Jul-23 14:23N 43°32' E 007°03'0 0.0
2014-Jul-23 13:23N 43°32' E 007°03'6 7.5
2014-Jul-23 12:33N 43°36' E 007°10'3 3.0
2014-Jul-23 11:32N 43°39' E 007°10'0 0.0
2014-Jul-23 10:32N 43°39' E 007°10'0 0.0
2014-Jul-23 09:20N 43°39' E 007°10'0 0.0
2014-Jul-23 08:33N 43°39' E 007°10'0 0.0
2014-Jul-23 07:33N 43°39' E 007°10'2 2.5
2014-Jul-23 06:33N 43°37' E 007°09'1 1.3
2014-Jul-23 05:33N 43°36' E 007°08'0 0.0
2014-Jul-23 04:33N 43°36' E 007°08'0 0.0
2014-Jul-23 03:33N 43°36' E 007°08'0 0.0
2014-Jul-23 02:33N 43°36' E 007°08'0 0.0
2014-Jul-23 01:33N 43°36' E 007°08'0 0.0
2014-Jul-23 00:33N 43°36' E 007°08'0 0.0
2014-Jul-22 23:33N 43°36' E 007°08'0 0.0
2014-Jul-22 22:33N 43°36' E 007°08'0 0.0
2014-Jul-22 21:33N 43°36' E 007°08'0 0.0
2014-Jul-22 20:33N 43°36' E 007°08'0 0.0
2014-Jul-22 19:33N 43°36' E 007°08'0 0.0
2014-Jul-22 18:33N 43°36' E 007°08'0 0.0
2014-Jul-22 17:33N 43°36' E 007°08'0 0.0
2014-Jul-22 16:33N 43°36' E 007°08'0 0.0
2014-Jul-22 15:33N 43°36' E 007°08'0 0.0
2014-Jul-22 14:33N 43°36' E 007°08'0 0.0
2014-Jul-22 13:33N 43°36' E 007°08'0 0.0
2014-Jul-22 12:33N 43°36' E 007°08'0 0.0
2014-Jul-22 11:33N 43°36' E 007°08'7 7.0
2014-Jul-22 10:30N 43°30' E 007°02'3 0.4
2014-Jul-22 02:25N 43°33' E 007°01'0 0.0
2014-Jul-21 07:04N 43°33' E 007°01'0 0.0
2014-Jul-20 21:24N 43°33' E 007°01'0 0.0
2014-Jul-20 18:17N 43°33' E 007°01'0 0.0
2014-Jul-20 17:07N 43°33' E 007°01'0 0.0
2014-Jul-20 16:09N 43°33' E 007°01'0 0.8
2014-Jul-20 15:33N 43°32' E 007°01'0 0.0
2014-Jul-20 14:33N 43°32' E 007°01'0 0.0
2014-Jul-20 13:31N 43°32' E 007°01'0 0.0
2014-Jul-20 12:32N 43°32' E 007°01'6 5.8
2014-Jul-20 11:34N 43°27' E 006°57'1413.4
2014-Jul-20 10:30N 43°18' E 006°42'4 4.0
2014-Jul-20 09:26N 43°16' E 006°37'0 0.0
2014-Jul-20 07:29N 43°16' E 006°37'0 0.0
2014-Jul-20 06:29N 43°16' E 006°37'0 0.0
2014-Jul-20 04:26N 43°16' E 006°37'0 0.1
2014-Jul-20 03:29N 43°16' E 006°37'0 0.0
2014-Jul-20 02:17N 43°16' E 006°37'0 0.0
2014-Jul-20 01:29N 43°16' E 006°37'0 0.0
2014-Jul-19 21:17N 43°16' E 006°37'0 0.0
2014-Jul-19 20:08N 43°16' E 006°37'0 0.0
2014-Jul-19 19:30N 43°16' E 006°37'0 0.0
2014-Jul-19 18:33N 43°16' E 006°37'4 4.0
2014-Jul-19 17:33N 43°17' E 006°42'4 4.0
2014-Jul-19 16:31N 43°14' E 006°40'0 0.0
2014-Jul-19 15:33N 43°14' E 006°40'0 0.0
2014-Jul-19 14:31N 43°14' E 006°40'0 0.0
2014-Jul-19 13:25N 43°14' E 006°40'0 0.0
2014-Jul-19 12:33N 43°14' E 006°40'0 0.0
2014-Jul-19 11:33N 43°14' E 006°40'0 0.0
2014-Jul-19 10:33N 43°14' E 006°40'0 0.0
2014-Jul-19 09:33N 43°14' E 006°40'0 0.0
2014-Jul-19 08:23N 43°14' E 006°40'0 0.0
2014-Jul-19 07:26N 43°14' E 006°40'4 4.3
2014-Jul-19 06:33N 43°11' E 006°44'1313.4
2014-Jul-19 05:33N 43°01' E 006°56'1313.1
2014-Jul-19 04:33N 42°51' E 007°08'1313.1
2014-Jul-19 03:32N 42°41' E 007°20'2912.6
2014-Jul-19 01:11N 42°19' E 007°46'912.8
2014-Jul-19 00:28N 42°12' E 007°54'1212.9
2014-Jul-18 23:33N 42°03' E 008°05'1312.9
2014-Jul-18 22:33N 41°54' E 008°17'  

Dump ship's entire track history